Ride Results

Gulgong Endurance Ride (30-07-2016)
Ride distance: 80.0 km

Outcomes - Gulgong Endurance Ride (30-07-2016)
Division No. of Entries Retired / DNE Completed Withdrawn Ineligible V/O Percentage Completed
HW 18 - 16 - - 2 88.89%
MW 33 - 27 1 - 5 81.82%
LW 22 - 21 - - 1 95.45%
JN 14 - 14 - - - 100.00%
Totals 87 - 78 1 - 8 89.66%
Results - Gulgong Endurance Ride (30-07-2016)
No. Rider Horse Place Time Leg Speeds Total
Km/Hr
H/R bpm
Heavyweight
51 Con Bouzianis Conderosa Zaheera 1 (BC) 3:54:00 21.6, 19.7 20.51 37, 38, 40 (Avg:39)
28 Stephen Bennett Aloha Zac 2 4:37:00 19.4, 15.9 17.33 40, 46, 55 (Avg:50)
42 Roy Barsby Dumaresq Buzz 3 5:06:00 16.1, 15.3 15.69 36, 41, 42 (Avg:41)
27 Steve Brooks A'landell Pirate 3 5:06:00 17.7, 14.3 15.69 37, 41, 40 (Avg:40)
64 Sue Warren Razorback Flash 5 5:37:00 17.9, 12.2 14.24 38, 44, 49 (Avg:46)
69 Rod Mitchell Aloha Tribal Warrior 6 6:02:00 15.6, 11.8 13.26 40, 36, 48 (Avg:42)
86 Gail Fisher Kailani Shatara 7 6:13:00 13.8, 12.2 12.87 31, 44, 51 (Avg:47)
25 James Ryan Cedar Ridge Hy Regard 8 6:25:00 13.4, 11.7 12.47 30, 41, 49 (Avg:45)
81 Andrew Bailey Cedar Ridge Oh Carol 9 6:31:00 13.5, 11.4 12.28 26, 37, 42 (Avg:39)
16 Keith Sumpner Fonda 10 6:38:00 13.9, 10.8 12.06 31, 44, 53 (Avg:48)
26 Charles Gauci Charleville Nazarena 11 6:48:00 13.9, 10.5 11.76 40, 42, 53 (Avg:47)
65 Heather Nagle Ejen Park Summer Tango 12 6:54:00 13.4, 10.4 11.59 42, 45, 40 (Avg:42)
61 Alan Mackinder Jezabelle Sweet Dreams 13 6:59:00 12.7, 10.6 11.46 33, 42, 40 (Avg:41)
78 Stuart Lymbery Aloha Typic 14 7:33:00 11.8, 9.7 10.60 35, 40, 44 (Avg:42)
76 Shaun Jones Rowallan Magic Simbol 15 7:49:00 12.0, 9.1 10.23 35, 40, 46 (Avg:43)
73 Brad Jones Shellal Jive 16 8:22:00 10.3, 9.0 9.56 37, 46, 58 (Avg:52)
48 Allan Caslick A'Landell Soul Lame L2 0:00:00 10.7, 23.8 - 29, 30, 33 (Avg:31)
36 Frank Flissinger Ranjen Spotted Feather Lame L2 0:00:00 14.0, 17.1 - 33, 42, 58 (Avg:50)
Middleweight
35 Chris Geddes Ali-Mae Spa 1 3:54:00 21.6, 19.7 20.51 37, 44, 46 (Avg:45)
33 Indigo Noonan Prince Nakeel Spa 1 (BC) 3:54:00 21.6, 19.7 20.51 33, 43, 42 (Avg:42)
59 Cathy Walton Amurath Kei 1 3:54:00 21.6, 19.7 20.51 40, 47, 59 (Avg:53)
60 Sandi Brown Indigo Dreaming 4 5:55:00 14.2, 12.9 13.52 35, 44, 48 (Avg:46)
15 Nicole Smith Malvern Harmony 5 6:02:00 15.3, 11.9 13.26 42, 41, 46 (Avg:43)
263 Ben Hudson Littlebanks Antwonett 6 6:03:00 13.9, 12.6 13.22 44, 49, 52 (Avg:50)
58 Gavin Peacock Chop Chop 6 6:03:00 15.2, 11.9 13.22 31, 40, 50 (Avg:45)
54 Fiona Meller Maxwell Eve 8 6:04:00 14.7, 12.1 13.19 34, 33, 39 (Avg:36)
46 David Player Mirakhani Saa'meer 8 6:04:00 14.7, 12.1 13.19 43, 42, 49 (Avg:45)
14 Carol Major Bradali Najmul Fi Samar 10 6:07:00 14.5, 12.1 13.08 36, 34, 44 (Avg:39)
258 Emily Streckfuss Webbs Creek Starlight 11 6:22:00 13.7, 11.7 12.57 30, 34, 44 (Avg:39)
80 Jo Davis Jamal Desert Mist 12 6:29:00 13.2, 11.7 12.34 40, 36, 45 (Avg:40)
84 Nicole Allan Webbs Creek Lawson 13 6:31:00 13.5, 11.4 12.28 40, 42, 50 (Avg:46)
82 Annette Bailey Bullio Charlotte 13 6:31:00 13.5, 11.4 12.28 32, 41, 46 (Avg:43)
266 Roy Counsell Diamond R Carbo 15 6:33:00 13.9, 11.1 12.21 35, 43, 48 (Avg:45)
66 Michele Ladmore Azale Aladdin 16 6:36:00 12.8, 11.6 12.12 36, 43, 45 (Avg:44)
62 Andrew Mackinder Annaliisa'ar 17 6:59:00 12.7, 10.6 11.46 36, 42, 50 (Avg:46)
70 Alex Baczocha Ralvon Secret 18 7:03:00 11.6, 11.1 11.35 31, 36, 38 (Avg:37)
255 Sonia Bonham Box Hill Gypsy 19 7:33:00 13.9, 8.9 10.60 34, 34, 39 (Avg:36)
226 Sarah Lymbery Aloha Desert Glitter 19 7:33:00 11.8, 9.7 10.60 29, 37, 37 (Avg:37)
77 Anne Lymbery Garonne Park Walker 19 7:33:00 11.8, 9.7 10.60 37, 43, 38 (Avg:40)
52 Margaret Boland Rosebrae Cameo 22 7:53:00 10.8, 9.6 10.15 36, 42, 41 (Avg:41)
12 Susan Pritchard Velona El Dargo 22 7:53:00 10.8, 9.6 10.15 28, 41, 53 (Avg:47)
50 Jennifer Caslick Wanstead Love Story 24 7:58:00 10.7, 9.5 10.04 43, 38, 40 (Avg:39)
63 Tracey Morley Shaylen Park Al'Jah'Zure 24 7:58:00 10.6, 9.6 10.04 40, 42, 53 (Avg:47)
44 Brett Willis Spirit 26 8:20:00 11.0, 8.7 9.60 50, 37, 48 (Avg:42)
32 Kate Pilley Aloha Zulm 27 8:22:00 10.3, 9.0 9.56 23, 31, 36 (Avg:33)
74 Shelley Jones Larntainey Gold 'N' Treasure Lame L2 0:00:00 10.3, 3.3 - 32, 43, 48 (Avg:45)
79 Geraldine Stuart Espirit Jet Lame L2 0:00:00 12.0, 9.1 - 37, 41, 53 (Avg:47)
85 Sara Worner Box Hill Banjo Lame L2 0:00:00 13.9, 8.9 - 36, 37, 38 (Avg:37)
49 Tom Bouzianis Conderosa Bucephalus Lame L1 0:00:00 13.8 - 36, 47 (Avg:47)
259 Brad Dillon Banfield Reign Lame L1 0:00:00 13.7 - 36, 40, 48 (Avg:44)
43 Thomas Hermann Wattle Vale Za Zu Widthdrawn P/R 0:00:00 - - 35, 42 (Avg:42)
Lightweight
39 Nicolle Brown Kie-Al Nasarian 1 (BC) 4:17:00 19.9, 17.7 18.68 44, 45, 45 (Avg:45)
24 Amanda Myers Grattai Station Traveller 2 4:37:00 19.2, 16.0 17.33 32, 44, 46 (Avg:45)
30 Shannen Thorsby Kamikaze Jacob 3 5:08:00 17.7, 14.2 15.58 36, 43, 52 (Avg:47)
67 Elizabeth Moir Coolahlee Park Shaman 4 5:17:00 17.6, 13.6 15.14 36, 42, 48 (Avg:45)
87 Catherine Connors Incognito 5 5:55:00 14.2, 12.9 13.52 35, 40, 47 (Avg:43)
18 Clare Fleming Picnic Park Katrinka 6 6:00:00 13.9, 12.8 13.33 44, 48, 47 (Avg:47)
83 Catherine Bailey Windradyne Sterling 7 6:03:00 13.9, 12.6 13.22 42, 34, 43 (Avg:38)
56 April Newman Tarnette 8 6:07:00 15.4, 11.6 13.08 32, 35, 37 (Avg:36)
13 Sue Todd Shakari Bear 8 6:07:00 14.5, 12.1 13.08 34, 43, 49 (Avg:46)
260 Lyn Dillon Banfield Khamsin 10 6:22:00 13.7, 11.7 12.57 35, 39, 40 (Avg:39)
261 Cody Holloway Blue Chip Jordan 10 6:22:00 13.7, 11.7 12.57 46, 48, 45 (Avg:46)
23 Jan Wade Hillville Amigo 12 6:25:00 13.8, 11.5 12.47 35, 38, 37 (Avg:37)
68 Deborah Colman Eska 13 6:29:00 13.2, 11.7 12.34 40, 47, 51 (Avg:49)
31 Anne Hills Karabil Serer 13 6:29:00 13.9, 11.3 12.34 32, 36, 38 (Avg:37)
57 Dianne Luker Sallydale Wings on Fire 15 6:30:00 13.2, 11.6 12.31 30, 41, 54 (Avg:47)
17 Elaine Kirby Excessabelle 16 6:36:00 15.9, 10.2 12.12 23, 36, 44 (Avg:40)
20 Marion Grove Wickwood Domanic 17 7:06:00 13.2, 10.0 11.27 25, 38, 40 (Avg:39)
53 Matthew Dunne Holly 18 7:11:00 13.4, 9.8 11.14 33, 35, 43 (Avg:39)
47 Jessica Mitchell Madgwick Diplomatic Lip 19 7:58:00 10.6, 9.6 10.04 42, 37, 34 (Avg:35)
45 Leanne Holz Orizhan 20 8:20:00 11.0, 8.7 9.60 48, 45, 39 (Avg:42)
41 Amanda Stott Sahra Sarab 20 8:20:00 11.0, 8.7 9.60 40, 32, 54 (Avg:43)
75 Leslee Burrell Larntainey Eureka Gold Lame L1 0:00:00 13.9 - 38, 43 (Avg:43)
Junior
10 Tahnaya Mercieca Malleegrove Qaarma 1 4:17:00 19.6, 18.0 18.68 33, 43, 52 (Avg:47)
29 Levi Robinson Karumba Beamish 1 (BC) 4:17:00 19.4, 18.1 18.68 35, 39, 44 (Avg:41)
257 Charlie Bonham Box Hill Hussy 3 5:45:00 14.7, 13.3 13.91 35, 35, 35 (Avg:35)
89 Sam Duff Box Hill Pegasus 3 5:45:00 14.7, 13.3 13.91 30, 32, 39 (Avg:35)
22 Makayla Circosta Ropa Park Bella Rastique 5 5:54:00 16.2, 11.9 13.56 30, 46, 41 (Avg:43)
21 Isabella Circosta Ropa Park Bella Shakila 5 5:54:00 16.2, 11.9 13.56 33, 34, 34 (Avg:34)
19 Brooke Marshall Flemingo Monic 7 6:00:00 13.9, 12.8 13.33 40, 43, 43 (Avg:43)
38 Emma Barlow Jellybean 8 6:06:00 13.8, 12.6 13.11 31, 37, 42 (Avg:39)
72 Phoebe Baczocha Colo Eclipse 9 7:03:00 11.6, 11.1 11.35 33, 44, 40 (Avg:42)
71 Isabella Baczocha Colo Moonjules 9 7:03:00 11.6, 11.1 11.35 32, 32, 40 (Avg:36)
37 Rebecca Male Ranjen Masquarade 11 7:06:00 14.0, 9.7 11.27 36, 50, 50 (Avg:50)
55 Lukas Dunne Nugget 12 7:11:00 13.4, 9.8 11.14 34, 40, 49 (Avg:44)
88 Gabrielle Worth Euki 13 7:32:00 11.5, 9.9 10.62 29, 36, 42 (Avg:39)
11 Kaitlyn Mercieca JRK Spyder 14 8:22:00 10.3, 9.0 9.56 35, 41, 47 (Avg:44)